createdAt,value
2018-12-03T00:00:39.003Z,3.00
2018-12-03T00:01:39.014Z,2.80
2018-12-03T00:02:38.985Z,3.20
2018-12-03T00:03:38.998Z,2.60
2018-12-03T00:04:38.963Z,3.20
2018-12-03T00:05:38.951Z,3.30
2018-12-03T00:06:38.938Z,3.20
2018-12-03T00:07:38.928Z,3.60
2018-12-03T00:08:38.943Z,8.50
2018-12-03T00:09:39.831Z,4.30
2018-12-03T00:10:38.890Z,3.90
2018-12-03T00:11:38.892Z,3.00
2018-12-03T00:12:38.872Z,3.40
2018-12-03T00:13:38.885Z,5.20
2018-12-03T00:14:38.847Z,4.00
2018-12-03T00:15:38.834Z,5.10
2018-12-03T00:16:38.825Z,6.20
2018-12-03T00:17:38.829Z,3.20
2018-12-03T00:18:38.829Z,3.60
2018-12-03T00:19:38.792Z,3.80
2018-12-03T00:20:38.778Z,5.00
2018-12-03T00:21:38.770Z,5.50
2018-12-03T00:22:38.757Z,6.40
2018-12-03T00:23:38.756Z,3.20
2018-12-03T00:24:38.766Z,4.20
2018-12-03T00:25:38.724Z,4.30
2018-12-03T00:26:38.710Z,4.40
2018-12-03T00:27:38.702Z,5.30
2018-12-03T00:28:38.689Z,4.00
2018-12-03T00:29:38.707Z,4.20
2018-12-03T00:30:38.668Z,4.60
2018-12-03T00:31:38.664Z,5.00
2018-12-03T00:32:38.648Z,2.90
2018-12-03T00:33:38.637Z,5.90
2018-12-03T00:34:38.653Z,4.80
2018-12-03T00:35:38.612Z,5.20
2018-12-03T00:36:38.604Z,6.00
2018-12-03T00:37:38.594Z,5.70
2018-12-03T00:38:38.577Z,4.80
2018-12-03T00:39:38.625Z,5.60
2018-12-03T00:40:38.558Z,4.50
2018-12-03T00:41:38.551Z,5.70
2018-12-03T00:42:38.533Z,5.80
2018-12-03T00:43:38.524Z,4.60
2018-12-03T00:44:38.540Z,4.30
2018-12-03T00:45:38.507Z,3.80
2018-12-03T00:46:38.488Z,3.60
2018-12-03T00:47:38.477Z,4.80
2018-12-03T00:48:38.467Z,3.50
2018-12-03T00:49:38.486Z,5.00
2018-12-03T00:50:38.442Z,4.60
2018-12-03T00:51:38.451Z,6.10
2018-12-03T00:52:38.424Z,3.80
2018-12-03T00:53:38.414Z,4.40
2018-12-03T00:54:38.401Z,4.70
2018-12-03T00:55:38.421Z,5.00
2018-12-03T00:56:38.378Z,3.80
2018-12-03T00:57:38.374Z,4.10
2018-12-03T00:58:38.363Z,4.60
2018-12-03T00:59:38.344Z,3.50
2018-12-03T01:00:38.364Z,5.20
2018-12-03T01:01:38.321Z,3.90
2018-12-03T01:02:38.312Z,3.40
2018-12-03T01:03:38.299Z,4.70
2018-12-03T01:04:38.300Z,3.50
2018-12-03T01:05:38.304Z,2.90
2018-12-03T01:06:38.276Z,2.10
2018-12-03T01:07:38.257Z,4.10
2018-12-03T01:08:38.243Z,3.60
2018-12-03T01:09:38.233Z,2.60
2018-12-03T01:10:38.263Z,3.60
2018-12-03T01:11:38.208Z,3.40
2018-12-03T01:12:38.200Z,2.90
2018-12-03T01:13:38.187Z,4.20
2018-12-03T01:14:38.175Z,2.30
2018-12-03T01:15:59.173Z,2.40
2018-12-03T01:16:38.153Z,2.40
2018-12-03T01:17:38.142Z,4.00
2018-12-03T01:18:38.130Z,2.70
2018-12-03T01:19:38.121Z,2.40
2018-12-03T01:20:38.108Z,2.60
2018-12-03T01:21:38.139Z,2.40
2018-12-03T01:22:38.087Z,2.50
2018-12-03T01:23:38.075Z,2.70
2018-12-03T01:24:38.066Z,1.90
2018-12-03T01:25:38.054Z,2.70
2018-12-03T01:26:38.070Z,2.50
2018-12-03T01:27:38.034Z,2.20
2018-12-03T01:28:38.022Z,1.40
2018-12-03T01:29:38.010Z,2.20
2018-12-03T01:30:37.998Z,2.10
2018-12-03T01:31:38.015Z,2.10
2018-12-03T01:32:37.977Z,1.30
2018-12-03T01:33:37.972Z,2.00
2018-12-03T01:34:37.954Z,1.70
2018-12-03T01:35:37.944Z,2.50
2018-12-03T01:36:37.959Z,2.30
2018-12-03T01:37:37.919Z,1.80
2018-12-03T01:38:37.908Z,1.60
2018-12-03T01:39:37.904Z,1.30
2018-12-03T01:40:37.888Z,2.20
2018-12-03T01:41:37.902Z,3.20
2018-12-03T01:42:37.865Z,1.90
2018-12-03T01:43:37.852Z,1.70
2018-12-03T01:44:37.845Z,2.10
2018-12-03T01:45:37.836Z,1.80
2018-12-03T01:46:37.854Z,2.50
2018-12-03T01:47:37.806Z,2.30
2018-12-03T01:48:37.797Z,3.00
2018-12-03T01:49:37.788Z,2.00
2018-12-03T01:50:37.774Z,2.10
2018-12-03T01:51:37.782Z,2.80
2018-12-03T01:52:37.780Z,1.90
2018-12-03T01:53:37.742Z,1.60
2018-12-03T01:54:37.729Z,1.60
2018-12-03T01:55:37.718Z,2.80
2018-12-03T01:56:37.748Z,2.70
2018-12-03T01:57:37.733Z,2.30
2018-12-03T01:58:37.688Z,2.30
2018-12-03T01:59:37.676Z,2.60
2018-12-03T02:00:37.661Z,1.50
2018-12-03T02:01:37.651Z,2.00
2018-12-03T02:02:37.666Z,2.50
2018-12-03T02:03:37.638Z,1.50
2018-12-03T02:04:37.617Z,1.40
2018-12-03T02:05:37.607Z,1.20
2018-12-03T02:06:37.594Z,2.00
2018-12-03T02:07:37.587Z,1.30
2018-12-03T02:08:37.645Z,1.70
2018-12-03T02:09:37.573Z,2.80
2018-12-03T02:10:37.550Z,1.60
2018-12-03T02:11:37.542Z,1.80
2018-12-03T02:12:37.533Z,2.00
2018-12-03T02:13:37.544Z,2.80
2018-12-03T02:14:37.514Z,2.40
2018-12-03T02:15:37.499Z,2.70
2018-12-03T02:16:37.483Z,2.00
2018-12-03T02:17:37.475Z,2.70
2018-12-03T02:18:37.493Z,3.00
2018-12-03T02:19:37.449Z,1.80
2018-12-03T02:20:37.437Z,3.10
2018-12-03T02:21:37.435Z,2.50
2018-12-03T02:22:37.417Z,1.30
2018-12-03T02:23:37.434Z,2.50
2018-12-03T02:24:37.400Z,2.00
2018-12-03T02:25:37.383Z,2.30
2018-12-03T02:26:37.374Z,2.10
2018-12-03T02:27:37.375Z,3.50
2018-12-03T02:28:37.377Z,3.20
2018-12-03T02:29:37.336Z,1.70
2018-12-03T02:30:37.326Z,3.50
2018-12-03T02:31:37.314Z,3.10
2018-12-03T02:32:37.305Z,3.10
2018-12-03T02:33:37.333Z,2.10
2018-12-03T02:34:37.281Z,3.80
2018-12-03T02:35:37.275Z,1.30
2018-12-03T02:36:37.260Z,1.60
2018-12-03T02:37:37.248Z,3.50
2018-12-03T02:38:37.266Z,4.60
2018-12-03T02:39:37.239Z,2.80
2018-12-03T02:40:37.215Z,2.30
2018-12-03T02:41:37.206Z,3.60
2018-12-03T02:42:37.196Z,3.40
2018-12-03T02:43:37.213Z,3.70
2018-12-03T02:44:37.172Z,2.10
2018-12-03T02:45:37.168Z,3.90
2018-12-03T02:46:37.148Z,2.10
2018-12-03T02:47:37.137Z,3.00
2018-12-03T02:48:37.154Z,2.80
2018-12-03T02:49:37.115Z,2.20
2018-12-03T02:50:37.109Z,2.60
2018-12-03T02:51:37.102Z,2.60
2018-12-03T02:52:37.082Z,4.60
2018-12-03T02:53:37.102Z,2.90
2018-12-03T02:54:37.059Z,3.20
2018-12-03T02:55:37.054Z,5.30
2018-12-03T02:56:37.038Z,3.30
2018-12-03T02:57:37.040Z,4.30
2018-12-03T02:58:37.043Z,3.80
2018-12-03T02:59:37.004Z,5.20
2018-12-03T03:00:37.003Z,3.40
2018-12-03T03:01:36.987Z,2.90
2018-12-03T03:02:36.974Z,4.00
2018-12-03T03:03:36.998Z,2.10
2018-12-03T03:04:36.945Z,1.60
2018-12-03T03:05:36.944Z,3.30
2018-12-03T03:06:36.927Z,2.90
2018-12-03T03:07:36.923Z,3.20
2018-12-03T03:08:36.933Z,3.60
2018-12-03T03:09:36.907Z,2.30
2018-12-03T03:10:36.879Z,2.70
2018-12-03T03:11:36.869Z,3.30
2018-12-03T03:12:36.861Z,1.60
2018-12-03T03:13:36.875Z,3.00
2018-12-03T03:14:36.835Z,3.60
2018-12-03T03:15:37.581Z,3.10
2018-12-03T03:16:36.814Z,2.80
2018-12-03T03:17:36.847Z,1.70
2018-12-03T03:18:36.821Z,3.00
2018-12-03T03:19:36.784Z,2.20
2018-12-03T03:20:36.770Z,1.60
2018-12-03T03:21:36.774Z,2.20
2018-12-03T03:22:36.748Z,3.20
2018-12-03T03:23:36.780Z,4.30
2018-12-03T03:24:36.724Z,3.30
2018-12-03T03:25:36.730Z,1.90
2018-12-03T03:26:36.702Z,2.80
2018-12-03T03:27:36.726Z,2.90
2018-12-03T03:28:36.711Z,3.10
2018-12-03T03:29:36.671Z,2.10
2018-12-03T03:30:36.658Z,2.20
2018-12-03T03:31:36.653Z,2.70
2018-12-03T03:32:36.700Z,5.50
2018-12-03T03:33:36.640Z,4.90
2018-12-03T03:34:36.644Z,3.70
2018-12-03T03:35:36.609Z,3.60
2018-12-03T03:36:36.589Z,3.80
2018-12-03T03:37:36.579Z,3.20
2018-12-03T03:38:36.569Z,4.10
2018-12-03T03:39:36.584Z,2.90
2018-12-03T03:40:36.553Z,1.70
2018-12-03T03:41:36.535Z,3.30
2018-12-03T03:42:36.531Z,3.40
2018-12-03T03:43:36.514Z,4.00
2018-12-03T03:44:36.530Z,2.40
2018-12-03T03:45:36.492Z,3.30
2018-12-03T03:46:36.479Z,2.70
2018-12-03T03:47:36.473Z,2.60
2018-12-03T03:48:36.469Z,3.30
2018-12-03T03:49:36.476Z,4.50
2018-12-03T03:50:36.438Z,3.50
2018-12-03T03:51:36.425Z,2.60
2018-12-03T03:52:36.413Z,3.80
2018-12-03T03:53:36.404Z,2.60
2018-12-03T03:54:36.427Z,2.10
2018-12-03T03:55:36.393Z,3.20
2018-12-03T03:56:36.370Z,1.40
2018-12-03T03:57:36.355Z,3.90
2018-12-03T03:58:36.346Z,5.20
2018-12-03T03:59:36.338Z,2.70
2018-12-03T04:00:36.353Z,1.40
2018-12-03T04:01:36.338Z,2.70
2018-12-03T04:02:36.300Z,1.40
2018-12-03T04:03:36.288Z,3.10
2018-12-03T04:04:36.307Z,3.40
2018-12-03T04:05:36.273Z,2.60
2018-12-03T04:06:36.258Z,0.70
2018-12-03T04:07:36.253Z,1.60
2018-12-03T04:08:36.237Z,1.80
2018-12-03T04:09:36.225Z,2.20
2018-12-03T04:10:36.244Z,3.10
2018-12-03T04:11:36.204Z,1.40
2018-12-03T04:13:51.894Z,1.00
2018-12-03T04:14:51.859Z,2.20
2018-12-03T04:15:51.871Z,2.10
2018-12-03T04:16:51.841Z,2.40
2018-12-03T04:17:51.864Z,2.80
2018-12-03T04:18:51.821Z,1.30
2018-12-03T04:19:51.802Z,2.30
2018-12-03T04:20:51.819Z,2.10
2018-12-03T04:21:51.783Z,2.80
2018-12-03T04:22:51.786Z,0.70
2018-12-03T04:23:51.766Z,1.60
2018-12-03T04:24:51.747Z,1.40
2018-12-03T04:25:51.760Z,1.70
2018-12-03T04:26:51.725Z,1.60
2018-12-03T04:27:51.711Z,2.30
2018-12-03T04:28:51.737Z,1.70
2018-12-03T04:29:51.693Z,1.20
2018-12-03T04:30:51.703Z,1.80
2018-12-03T04:31:51.677Z,1.20
2018-12-03T04:32:51.656Z,1.70
2018-12-03T04:33:51.651Z,2.20
2018-12-03T04:34:51.639Z,1.80
2018-12-03T04:35:51.648Z,1.10
2018-12-03T04:36:51.611Z,1.30
2018-12-03T04:37:51.605Z,1.30
2018-12-03T04:38:51.590Z,1.60
2018-12-03T04:39:51.593Z,2.30
2018-12-03T04:40:51.591Z,2.10
2018-12-03T04:41:51.593Z,2.00
2018-12-03T04:42:51.564Z,4.40
2018-12-03T04:43:51.535Z,1.20
2018-12-03T04:44:51.523Z,1.50
2018-12-03T04:45:51.532Z,1.80
2018-12-03T04:46:51.506Z,3.40
2018-12-03T04:47:51.486Z,2.40
2018-12-03T04:48:51.476Z,1.40
2018-12-03T04:49:51.488Z,4.10
2018-12-03T04:50:51.488Z,3.40
2018-12-03T04:51:51.443Z,3.60
2018-12-03T04:52:51.495Z,2.20
2018-12-03T04:53:51.417Z,1.90
2018-12-03T04:54:51.406Z,1.60
2018-12-03T04:55:51.397Z,1.60
2018-12-03T04:56:51.408Z,2.70
2018-12-03T04:57:51.374Z,2.40
2018-12-03T04:58:51.363Z,2.20
2018-12-03T04:59:51.413Z,3.30
2018-12-03T05:00:51.342Z,1.00
2018-12-03T05:01:51.364Z,1.50
2018-12-03T05:02:51.315Z,2.30
2018-12-03T05:03:51.304Z,0.80
2018-12-03T05:04:51.300Z,1.20
2018-12-03T05:05:51.282Z,1.60
2018-12-03T05:06:51.698Z,0.90
2018-12-03T05:07:51.260Z,1.70
2018-12-03T05:08:51.254Z,2.70
2018-12-03T05:09:51.235Z,1.10
2018-12-03T05:10:51.231Z,0.60
2018-12-03T05:11:51.244Z,0.90
2018-12-03T05:12:51.223Z,1.00
2018-12-03T05:13:51.192Z,0.60
2018-12-03T05:14:51.195Z,0.30
2018-12-03T05:15:51.180Z,0.50
2018-12-03T05:16:51.203Z,0.20
2018-12-03T05:17:51.151Z,0.30
2018-12-03T05:18:51.145Z,0.80
2018-12-03T05:19:51.125Z,0.30
2018-12-03T05:20:51.122Z,0.60
2018-12-03T05:21:51.105Z,0.30
2018-12-03T05:22:51.116Z,0.50
2018-12-03T05:23:51.081Z,1.60
2018-12-03T05:24:51.074Z,1.40
2018-12-03T05:25:51.057Z,0.40
2018-12-03T05:26:51.047Z,1.80
2018-12-03T05:27:51.058Z,0.40
2018-12-03T05:28:51.025Z,0.60
2018-12-03T05:29:51.012Z,0.30
2018-12-03T05:30:51.002Z,0.40
2018-12-03T05:31:50.988Z,0.80
2018-12-03T05:32:51.005Z,0.60
2018-12-03T05:33:50.969Z,1.60
2018-12-03T05:34:50.956Z,0.50
2018-12-03T05:35:50.944Z,0.60
2018-12-03T05:36:50.935Z,0.90
2018-12-03T05:37:50.944Z,0.50
2018-12-03T05:38:50.915Z,0.50
2018-12-03T05:39:50.900Z,0.80
2018-12-03T05:40:50.887Z,0.60
2018-12-03T05:41:50.874Z,1.10
2018-12-03T05:42:50.889Z,0.80
2018-12-03T05:43:50.853Z,1.80
2018-12-03T05:44:50.847Z,0.60
2018-12-03T05:45:50.874Z,0.60
2018-12-03T05:46:50.825Z,1.10
2018-12-03T05:47:50.810Z,1.10
2018-12-03T05:48:50.822Z,1.20
2018-12-03T05:49:50.785Z,0.90
2018-12-03T05:50:50.779Z,1.00
2018-12-03T05:51:50.765Z,0.70
2018-12-03T05:52:50.761Z,0.70
2018-12-03T05:53:50.776Z,2.00
2018-12-03T05:54:50.728Z,1.40
2018-12-03T05:55:50.723Z,0.80
2018-12-03T05:56:50.709Z,1.50
2018-12-03T05:57:50.699Z,2.00
2018-12-03T05:58:50.757Z,1.50
2018-12-03T05:59:50.672Z,0.90
2018-12-03T06:00:50.663Z,4.20
2018-12-03T06:01:50.665Z,1.30
2018-12-03T06:02:50.641Z,1.10
2018-12-03T06:03:50.651Z,1.70
2018-12-03T06:04:50.621Z,2.60
2018-12-03T06:05:50.603Z,1.20
2018-12-03T06:06:50.592Z,1.30
2018-12-03T06:07:50.588Z,1.00
2018-12-03T06:08:50.601Z,1.70
2018-12-03T06:09:50.559Z,1.80
2018-12-03T06:10:50.551Z,1.20
2018-12-03T06:11:50.535Z,1.30
2018-12-03T06:12:50.526Z,0.90
2018-12-03T06:13:50.542Z,2.40
2018-12-03T06:14:50.507Z,2.10
2018-12-03T06:15:50.495Z,2.40
2018-12-03T06:16:50.486Z,2.00
2018-12-03T06:17:50.470Z,1.20
2018-12-03T06:18:50.494Z,1.00
2018-12-03T06:19:50.445Z,1.20
2018-12-03T06:20:50.439Z,1.20
2018-12-03T06:21:50.423Z,1.10
2018-12-03T06:22:50.415Z,0.70
2018-12-03T06:23:50.401Z,0.90
2018-12-03T06:24:50.413Z,1.50
2018-12-03T06:25:50.381Z,1.10
2018-12-03T06:26:50.369Z,1.60
2018-12-03T06:27:50.356Z,1.60
2018-12-03T06:28:50.352Z,2.10
2018-12-03T06:29:50.364Z,3.00
2018-12-03T06:30:50.322Z,3.20
2018-12-03T06:31:50.309Z,4.60
2018-12-03T06:32:50.298Z,5.10
2018-12-03T06:33:50.288Z,3.50
2018-12-03T06:34:50.310Z,3.80
2018-12-03T06:35:50.267Z,6.40
2018-12-03T06:36:50.272Z,4.10
2018-12-03T06:37:50.250Z,5.70
2018-12-03T06:38:50.230Z,4.60
2018-12-03T06:39:50.250Z,4.00
2018-12-03T06:40:50.222Z,3.60
2018-12-03T06:41:50.201Z,2.80
2018-12-03T06:42:50.187Z,3.70
2018-12-03T06:43:50.179Z,3.20
2018-12-03T06:44:50.196Z,5.20
2018-12-03T06:45:50.155Z,2.40
2018-12-03T06:46:50.141Z,5.10
2018-12-03T06:47:50.145Z,3.30
2018-12-03T06:48:50.120Z,3.70
2018-12-03T06:49:50.135Z,2.50
2018-12-03T06:50:50.095Z,2.80
2018-12-03T06:51:50.086Z,3.30
2018-12-03T06:52:50.080Z,3.10
2018-12-03T06:53:50.062Z,2.40
2018-12-03T06:54:50.080Z,1.70
2018-12-03T06:55:50.044Z,1.80
2018-12-03T06:56:50.034Z,3.10
2018-12-03T06:57:50.019Z,1.70
2018-12-03T06:58:50.008Z,4.30
2018-12-03T06:59:50.019Z,2.40
2018-12-03T07:00:49.987Z,1.30
2018-12-03T07:01:49.976Z,2.70
2018-12-03T07:02:49.965Z,2.20
2018-12-03T07:03:49.955Z,2.90
2018-12-03T07:04:49.963Z,3.20
2018-12-03T07:05:49.926Z,2.30
2018-12-03T07:06:49.916Z,2.50
2018-12-03T07:07:49.904Z,2.90
2018-12-03T07:08:49.891Z,3.40
2018-12-03T07:09:49.890Z,1.80
2018-12-03T07:10:49.898Z,3.70
2018-12-03T07:11:49.859Z,2.30
2018-12-03T07:12:49.850Z,2.10
2018-12-03T07:13:49.837Z,1.80
2018-12-03T07:14:49.829Z,2.60
2018-12-03T07:15:49.842Z,1.90
2018-12-03T07:16:49.804Z,2.00
2018-12-03T07:17:49.793Z,2.50
2018-12-03T07:18:49.779Z,2.20
2018-12-03T07:19:49.769Z,4.60
2018-12-03T07:20:49.785Z,1.70
2018-12-03T07:21:49.749Z,2.90
2018-12-03T07:22:49.736Z,1.70
2018-12-03T07:23:49.730Z,2.20
2018-12-03T07:24:49.713Z,1.70
2018-12-03T07:25:49.725Z,2.20
2018-12-03T07:26:49.694Z,2.10
2018-12-03T07:27:49.681Z,2.40
2018-12-03T07:28:49.667Z,2.10
2018-12-03T07:29:52.858Z,3.10
2018-12-03T07:30:49.672Z,2.40
2018-12-03T07:31:49.643Z,3.80
2018-12-03T07:32:49.623Z,3.30
2018-12-03T07:33:49.611Z,3.30
2018-12-03T07:34:49.603Z,3.00
2018-12-03T07:35:49.616Z,2.00
2018-12-03T07:36:49.578Z,2.50
2018-12-03T07:37:49.565Z,2.50
2018-12-03T07:38:49.553Z,3.10
2018-12-03T07:39:49.543Z,2.90
2018-12-03T07:40:49.574Z,4.30
2018-12-03T07:41:49.523Z,3.30
2018-12-03T07:42:49.518Z,3.20
2018-12-03T07:43:49.498Z,3.30
2018-12-03T07:44:49.492Z,3.70
2018-12-03T07:45:49.505Z,3.60
2018-12-03T07:46:49.463Z,3.70
2018-12-03T07:47:49.456Z,5.40
2018-12-03T07:48:49.440Z,4.20
2018-12-03T07:49:49.436Z,4.10
2018-12-03T07:50:49.443Z,2.70
2018-12-03T07:51:49.407Z,4.90
2018-12-03T07:52:49.402Z,3.80
2018-12-03T07:53:49.387Z,3.60
2018-12-03T07:54:49.379Z,3.10
2018-12-03T07:55:49.366Z,5.20
2018-12-03T07:56:49.380Z,3.40
2018-12-03T07:57:49.341Z,4.40
2018-12-03T07:58:49.329Z,3.20
2018-12-03T07:59:49.324Z,3.20
2018-12-03T08:00:49.307Z,4.80
2018-12-03T08:01:49.319Z,6.20
2018-12-03T08:02:49.290Z,4.60
2018-12-03T08:03:49.273Z,5.80
2018-12-03T08:04:49.261Z,5.10
2018-12-03T08:05:49.265Z,3.80
2018-12-03T08:06:49.266Z,4.90
2018-12-03T08:07:49.229Z,4.20
2018-12-03T08:08:49.217Z,6.00
2018-12-03T08:09:49.213Z,4.10
2018-12-03T08:10:49.195Z,4.80
2018-12-03T08:11:49.205Z,4.20
2018-12-03T08:12:49.172Z,4.50
2018-12-03T08:13:49.162Z,4.90
2018-12-03T08:14:49.151Z,5.50
2018-12-03T08:15:49.139Z,6.20
2018-12-03T08:16:49.160Z,6.10
2018-12-03T08:17:49.114Z,3.90
2018-12-03T08:18:49.102Z,6.50
2018-12-03T08:19:49.089Z,5.90
2018-12-03T08:20:49.078Z,5.00
2018-12-03T08:21:49.117Z,7.00
2018-12-03T08:22:49.065Z,6.30
2018-12-03T08:23:49.046Z,3.80
2018-12-03T08:24:49.034Z,4.30
2018-12-03T08:25:49.023Z,3.50
2018-12-03T08:26:49.037Z,5.90
2018-12-03T08:27:49.000Z,5.10
2018-12-03T08:28:49.006Z,4.20
2018-12-03T08:29:48.979Z,4.90
2018-12-03T08:30:48.969Z,5.80
2018-12-03T08:31:48.979Z,6.60
2018-12-03T08:32:48.944Z,5.70
2018-12-03T08:33:48.933Z,6.10
2018-12-03T08:34:48.928Z,3.90
2018-12-03T08:35:48.912Z,4.70
2018-12-03T08:36:48.923Z,4.10
2018-12-03T08:37:48.886Z,6.40
2018-12-03T08:38:48.876Z,5.00
2018-12-03T08:39:48.864Z,6.60
2018-12-03T08:40:48.855Z,6.50
2018-12-03T08:41:48.873Z,5.50
2018-12-03T08:42:48.842Z,7.10
2018-12-03T08:43:48.821Z,5.30
2018-12-03T08:44:48.808Z,7.30
2018-12-03T08:45:48.826Z,5.10
2018-12-03T08:46:48.816Z,6.10
2018-12-03T08:47:49.602Z,6.20
2018-12-03T08:48:48.769Z,6.70
2018-12-03T08:49:48.810Z,4.80
2018-12-03T08:50:48.739Z,5.90
2018-12-03T08:51:48.759Z,5.70
2018-12-03T08:52:48.719Z,5.50
2018-12-03T08:53:48.715Z,2.60
2018-12-03T08:54:48.698Z,6.70
2018-12-03T08:55:48.706Z,5.60
2018-12-03T08:56:48.698Z,7.70
2018-12-03T08:57:48.669Z,6.70
2018-12-03T08:58:48.652Z,4.80
2018-12-03T08:59:48.639Z,5.90
2018-12-03T09:00:48.627Z,8.10
2018-12-03T09:01:48.639Z,6.10
2018-12-03T09:02:48.605Z,7.80
2018-12-03T09:03:48.594Z,5.00
2018-12-03T09:04:48.587Z,7.20
2018-12-03T09:05:48.580Z,6.20
2018-12-03T09:06:48.560Z,6.10
2018-12-03T09:07:48.655Z,4.60
2018-12-03T09:08:48.540Z,8.20
2018-12-03T09:09:48.527Z,7.20
2018-12-03T09:10:48.518Z,4.40
2018-12-03T09:11:48.526Z,9.60
2018-12-03T09:12:48.495Z,4.00
2018-12-03T09:13:48.487Z,7.80
2018-12-03T09:14:48.467Z,6.90
2018-12-03T09:15:48.470Z,5.20
2018-12-03T09:16:48.454Z,4.70
2018-12-03T09:17:48.461Z,5.20
2018-12-03T09:18:48.427Z,8.70
2018-12-03T09:19:48.414Z,7.60
2018-12-03T09:20:48.400Z,5.60
2018-12-03T09:21:48.404Z,5.00
2018-12-03T09:22:48.401Z,4.60
2018-12-03T09:23:48.373Z,4.80
2018-12-03T09:24:48.355Z,4.10
2018-12-03T09:25:48.347Z,7.40
2018-12-03T09:26:48.332Z,10.50
2018-12-03T09:27:48.348Z,10.90
2018-12-03T09:28:48.314Z,3.70
2018-12-03T09:29:48.298Z,5.50
2018-12-03T09:30:48.294Z,4.70
2018-12-03T09:31:48.275Z,6.00
2018-12-03T09:32:48.300Z,5.80
2018-12-03T09:33:48.312Z,6.30
2018-12-03T09:34:48.241Z,5.20
2018-12-03T09:35:48.229Z,3.50
2018-12-03T09:36:48.218Z,5.60
2018-12-03T09:37:48.239Z,6.30
2018-12-03T09:38:48.211Z,4.20
2018-12-03T09:39:48.189Z,6.50
2018-12-03T09:40:48.174Z,5.00
2018-12-03T09:41:48.172Z,4.70
2018-12-03T09:42:48.176Z,4.50
2018-12-03T09:43:48.140Z,4.70
2018-12-03T09:44:48.129Z,5.10
2018-12-03T09:45:48.160Z,5.60
2018-12-03T09:46:48.112Z,5.40
2018-12-03T09:47:48.120Z,4.50
2018-12-03T09:48:48.088Z,6.30
2018-12-03T09:49:48.073Z,4.60
2018-12-03T09:50:48.069Z,5.50
2018-12-03T09:51:48.288Z,4.00
2018-12-03T09:52:48.062Z,7.50
2018-12-03T09:53:48.031Z,4.20
2018-12-03T09:54:48.015Z,3.50
2018-12-03T09:55:48.006Z,4.60
2018-12-03T09:56:47.995Z,4.80
2018-12-03T09:57:48.016Z,4.00
2018-12-03T09:58:47.971Z,4.00
2018-12-03T09:59:47.959Z,3.70
2018-12-03T10:00:47.957Z,4.00
2018-12-03T10:01:47.938Z,4.30
2018-12-03T10:02:47.949Z,4.70
2018-12-03T10:03:47.914Z,3.30
2018-12-03T10:04:47.908Z,3.30
2018-12-03T10:05:47.895Z,5.90
2018-12-03T10:06:47.880Z,2.90
2018-12-03T10:07:47.896Z,4.30
2018-12-03T10:08:47.858Z,3.90
2018-12-03T10:09:47.850Z,3.60
2018-12-03T10:10:47.835Z,3.80
2018-12-03T10:11:47.827Z,4.00
2018-12-03T10:12:47.838Z,4.00
2018-12-03T10:13:47.845Z,3.70
2018-12-03T10:14:47.789Z,5.30
2018-12-03T10:15:47.780Z,3.30
2018-12-03T10:16:47.766Z,3.10
2018-12-03T10:17:47.778Z,5.40
2018-12-03T10:18:47.744Z,3.50
2018-12-03T10:19:47.768Z,3.30
2018-12-03T10:20:47.721Z,4.10
2018-12-03T10:21:47.762Z,3.80
2018-12-03T10:22:47.724Z,4.00
2018-12-03T10:23:47.688Z,3.80
2018-12-03T10:24:47.680Z,8.10
2018-12-03T10:25:47.666Z,4.40
2018-12-03T10:26:47.665Z,8.80
2018-12-03T10:27:47.674Z,7.70
2018-12-03T10:28:47.634Z,5.00
2018-12-03T10:29:47.618Z,4.80
2018-12-03T10:30:47.607Z,9.40
2018-12-03T10:31:47.597Z,6.80
2018-12-03T10:32:47.635Z,5.60
2018-12-03T10:33:47.581Z,7.50
2018-12-03T10:34:47.562Z,7.50
2018-12-03T10:35:47.555Z,7.00
2018-12-03T10:36:47.544Z,5.90
2018-12-03T10:37:47.558Z,8.00
2018-12-03T10:38:48.103Z,7.30
2018-12-03T10:39:47.509Z,8.90
2018-12-03T10:40:47.502Z,8.70
2018-12-03T10:41:47.494Z,9.30
2018-12-03T10:42:47.479Z,6.70
2018-12-03T10:43:47.504Z,4.60
2018-12-03T10:44:47.449Z,11.10
2018-12-03T10:45:47.444Z,9.60
2018-12-03T10:46:47.427Z,8.00
2018-12-03T10:47:47.438Z,6.90
2018-12-03T10:48:47.408Z,8.10
2018-12-03T10:49:47.397Z,7.90
2018-12-03T10:50:47.381Z,8.90
2018-12-03T10:51:47.378Z,9.00
2018-12-03T10:52:47.359Z,6.50
2018-12-03T10:53:47.374Z,10.20
2018-12-03T10:54:47.339Z,7.60
2018-12-03T10:55:47.573Z,7.20
2018-12-03T10:56:47.315Z,8.00
2018-12-03T10:57:47.303Z,9.40
2018-12-03T10:58:47.318Z,10.80
2018-12-03T10:59:47.340Z,11.00
2018-12-03T11:00:47.267Z,10.00
2018-12-03T11:01:47.258Z,8.90
2018-12-03T11:02:47.253Z,10.10
2018-12-03T11:03:47.317Z,8.20
2018-12-03T11:04:47.222Z,9.10
2018-12-03T11:05:47.213Z,6.50
2018-12-03T11:06:47.203Z,7.90
2018-12-03T11:07:47.191Z,7.30
2018-12-03T11:08:47.201Z,6.90
2018-12-03T11:09:47.172Z,8.00
2018-12-03T11:10:47.156Z,9.40
2018-12-03T11:11:47.187Z,7.00
2018-12-03T11:12:47.129Z,7.30
2018-12-03T11:13:47.145Z,5.20
2018-12-03T11:14:47.112Z,6.70
2018-12-03T11:15:47.097Z,9.90
2018-12-03T11:16:47.098Z,6.80
2018-12-03T11:17:47.078Z,7.50
2018-12-03T11:18:47.089Z,7.70
2018-12-03T11:19:47.052Z,8.90
2018-12-03T11:20:47.041Z,7.70
2018-12-03T11:21:47.035Z,9.00
2018-12-03T11:22:47.024Z,6.20
2018-12-03T11:23:47.036Z,6.20
2018-12-03T11:24:46.996Z,8.90
2018-12-03T11:25:46.985Z,6.90
2018-12-03T11:26:46.974Z,8.50
2018-12-03T11:27:46.967Z,5.00
2018-12-03T11:28:46.974Z,8.20
2018-12-03T11:29:46.938Z,6.50
2018-12-03T11:30:46.930Z,7.00
2018-12-03T11:31:46.914Z,6.80
2018-12-03T11:32:46.903Z,9.50
2018-12-03T11:33:46.951Z,7.00
2018-12-03T11:34:47.020Z,8.90
2018-12-03T11:35:46.873Z,6.70
2018-12-03T11:36:46.858Z,5.40
2018-12-03T11:37:46.850Z,7.50
2018-12-03T11:38:46.895Z,10.30
2018-12-03T11:39:46.835Z,6.80
2018-12-03T11:40:46.820Z,5.40
2018-12-03T11:41:46.802Z,9.00
2018-12-03T11:42:46.790Z,11.60
2018-12-03T11:43:46.809Z,6.60
2018-12-03T11:44:46.779Z,8.40
2018-12-03T11:45:46.756Z,9.40
2018-12-03T11:46:46.746Z,6.90
2018-12-03T11:47:46.737Z,9.50
2018-12-03T11:48:46.823Z,8.40
2018-12-03T11:49:46.714Z,8.50
2018-12-03T11:50:46.708Z,7.20
2018-12-03T11:51:46.689Z,6.70
2018-12-03T11:52:46.686Z,6.90
2018-12-03T11:53:46.669Z,7.00
2018-12-03T11:54:47.142Z,8.60
2018-12-03T11:55:46.644Z,7.50
2018-12-03T11:56:46.636Z,4.80
2018-12-03T11:57:46.684Z,6.90
2018-12-03T11:58:46.633Z,8.00
2018-12-03T11:59:46.613Z,5.20
2018-12-03T12:00:46.588Z,7.00
2018-12-03T12:01:46.576Z,8.60
2018-12-03T12:02:46.571Z,7.00
2018-12-03T12:03:46.556Z,6.60
2018-12-03T12:04:46.565Z,8.30
2018-12-03T12:05:46.533Z,7.10
2018-12-03T12:06:46.534Z,6.50
2018-12-03T12:07:46.509Z,8.00
2018-12-03T12:08:46.507Z,6.20
2018-12-03T12:09:46.513Z,8.20
2018-12-03T12:10:46.491Z,6.90
2018-12-03T12:11:46.468Z,5.40
2018-12-03T12:12:46.455Z,3.90
2018-12-03T12:13:46.441Z,6.10
2018-12-03T12:14:46.455Z,6.80
2018-12-03T12:15:46.427Z,5.40
2018-12-03T12:16:46.409Z,5.70
2018-12-03T12:17:46.393Z,6.30
2018-12-03T12:18:46.390Z,6.40
2018-12-03T12:19:46.397Z,5.70
2018-12-03T12:20:46.362Z,5.90
2018-12-03T12:21:46.356Z,5.80
2018-12-03T12:22:46.339Z,6.40
2018-12-03T12:23:46.327Z,6.40
2018-12-03T12:24:46.346Z,5.70
2018-12-03T12:25:46.305Z,4.60
2018-12-03T12:26:46.295Z,6.60
2018-12-03T12:27:46.325Z,6.80
2018-12-03T12:28:46.282Z,4.70
2018-12-03T12:29:46.291Z,6.60
2018-12-03T12:30:46.248Z,3.90
2018-12-03T12:31:46.272Z,4.10
2018-12-03T12:32:46.224Z,8.00
2018-12-03T12:33:46.231Z,5.70
2018-12-03T12:34:46.232Z,8.50
2018-12-03T12:35:46.192Z,8.90
2018-12-03T12:36:46.214Z,7.50
2018-12-03T12:37:46.170Z,6.80
2018-12-03T12:38:46.157Z,6.20
2018-12-03T12:39:46.217Z,8.10
2018-12-03T12:40:46.156Z,8.90
2018-12-03T12:41:46.129Z,7.80
2018-12-03T12:42:46.112Z,7.40
2018-12-03T12:43:46.102Z,7.00
2018-12-03T12:44:46.130Z,7.80
2018-12-03T12:45:46.085Z,10.50
2018-12-03T12:46:46.068Z,7.20
2018-12-03T12:47:46.054Z,5.60
2018-12-03T12:48:46.067Z,7.00
2018-12-03T12:49:46.058Z,8.10
2018-12-03T12:50:46.024Z,7.00
2018-12-03T12:51:51.447Z,5.80
2018-12-03T12:52:47.924Z,7.50
2018-12-03T12:53:45.989Z,7.50
2018-12-03T12:54:46.004Z,6.50
2018-12-03T12:55:45.965Z,8.60
2018-12-03T12:56:45.953Z,4.90
2018-12-03T12:57:45.955Z,5.50
2018-12-03T12:58:45.933Z,7.50
2018-12-03T12:59:45.949Z,6.10
2018-12-03T13:00:45.910Z,6.00
2018-12-03T13:01:45.903Z,5.90
2018-12-03T13:02:45.886Z,9.00
2018-12-03T13:03:45.874Z,7.70
2018-12-03T13:04:45.892Z,7.40
2018-12-03T13:05:45.861Z,7.30
2018-12-03T13:06:45.842Z,7.20
2018-12-03T13:07:45.840Z,5.50
2018-12-03T13:08:45.817Z,8.40
2018-12-03T13:09:45.830Z,8.50
2018-12-03T13:10:45.797Z,6.70
2018-12-03T13:11:45.784Z,6.40
2018-12-03T13:12:45.776Z,7.00
2018-12-03T13:13:45.763Z,8.50
2018-12-03T13:14:45.775Z,7.60
2018-12-03T13:15:45.741Z,8.20
2018-12-03T13:16:45.733Z,8.20
2018-12-03T13:17:45.716Z,10.20
2018-12-03T13:18:45.705Z,7.50
2018-12-03T13:19:45.720Z,9.30